Time,TemperatureF,DewpointF,PressureIn,WindDirection,WindDirectionDegrees,WindSpeedMPH,WindSpeedGustMPH,Humidity,HourlyPrecipIn,Conditions,Clouds,dailyrainin,SoftwareType,DateUTC
2013-01-08 00:11:00,24.6,24.4,30.17,ESE,112,0.0,-999.0,99,-99.99,,,0.00,Acu-Link.com,2013-01-08 06:11:00,
2013-01-08 00:26:00,24.8,24.6,30.17,ESE,112,0.0,-999.0,99,-99.99,,,0.00,Acu-Link.com,2013-01-08 06:26:00,
2013-01-08 00:41:00,25.3,25.1,30.16,South,180,0.0,-999.0,99,-99.99,,,0.00,Acu-Link.com,2013-01-08 06:41:00,
2013-01-08 00:56:00,29.1,28.9,30.16,South,180,0.0,-999.0,99,-99.99,,,0.00,Acu-Link.com,2013-01-08 06:56:00,
2013-01-08 01:11:00,27.9,27.7,30.16,SSE,157,2.2,-999.0,99,-99.99,,,0.00,Acu-Link.com,2013-01-08 07:11:00,
2013-01-08 01:26:00,27.9,27.7,30.15,SE,135,2.2,-999.0,99,-99.99,,,0.00,Acu-Link.com,2013-01-08 07:26:00,
2013-01-08 01:41:00,27.9,27.7,30.16,SE,135,0.0,-999.0,99,-99.99,,,0.00,Acu-Link.com,2013-01-08 07:41:00,
2013-01-08 01:56:00,27.7,27.5,30.16,SE,135,0.0,-999.0,99,-99.99,,,0.00,Acu-Link.com,2013-01-08 07:56:00,
2013-01-08 02:12:00,28.4,28.2,30.16,SSE,157,2.2,-999.0,99,-99.99,,,0.00,Acu-Link.com,2013-01-08 08:12:00,
2013-01-08 02:27:00,29.8,29.6,30.16,SSE,157,3.2,-999.0,99,-99.99,,,0.00,Acu-Link.com,2013-01-08 08:27:00,
2013-01-08 02:42:00,29.3,29.1,30.16,SE,135,2.2,-999.0,99,-99.99,,,0.00,Acu-Link.com,2013-01-08 08:42:00,
2013-01-08 02:57:00,28.8,28.6,30.17,SE,135,1.7,-999.0,99,-99.99,,,0.00,Acu-Link.com,2013-01-08 08:57:00,
2013-01-08 03:12:00,28.4,28.2,30.17,SE,135,1.7,-999.0,99,-99.99,,,0.00,Acu-Link.com,2013-01-08 09:12:00,
2013-01-08 03:27:00,27.7,27.5,30.16,SE,135,2.2,-999.0,99,-99.99,,,0.00,Acu-Link.com,2013-01-08 09:27:00,
2013-01-08 03:42:00,27.3,27.1,30.16,SE,135,2.7,-999.0,99,-99.99,,,0.00,Acu-Link.com,2013-01-08 09:42:00,
2013-01-08 03:57:00,27.7,27.5,30.16,SE,135,1.7,-999.0,99,-99.99,,,0.00,Acu-Link.com,2013-01-08 09:57:00,
2013-01-08 04:12:00,26.2,26.0,30.16,NNE,22,1.7,-999.0,99,-99.99,,,0.00,Acu-Link.com,2013-01-08 10:12:00,
2013-01-08 04:28:00,25.3,25.1,30.16,NE,45,0.0,-999.0,99,-99.99,,,0.00,Acu-Link.com,2013-01-08 10:28:00,
2013-01-08 04:43:00,24.8,24.6,30.16,NE,45,0.0,-999.0,99,-99.99,,,0.00,Acu-Link.com,2013-01-08 10:43:00,
2013-01-08 04:58:00,24.3,24.1,30.16,NE,45,0.0,-999.0,99,-99.99,,,0.00,Acu-Link.com,2013-01-08 10:58:00,
2013-01-08 05:13:00,24.3,24.1,30.15,ESE,112,0.0,-999.0,99,-99.99,,,0.00,Acu-Link.com,2013-01-08 11:13:00,
2013-01-08 05:28:00,23.9,23.7,30.16,NE,45,0.0,-999.0,99,-99.99,,,0.00,Acu-Link.com,2013-01-08 11:28:00,
2013-01-08 05:43:00,23.4,23.2,30.17,NE,45,0.0,-999.0,99,-99.99,,,0.00,Acu-Link.com,2013-01-08 11:43:00,
2013-01-08 05:58:00,23.9,23.7,30.18,SE,135,0.0,-999.0,99,-99.99,,,0.00,Acu-Link.com,2013-01-08 11:58:00,
2013-01-08 06:13:00,23.4,23.2,30.18,SSE,157,0.0,-999.0,99,-99.99,,,0.00,Acu-Link.com,2013-01-08 12:13:00,
2013-01-08 06:28:00,23.2,23.0,30.18,ESE,112,0.0,-999.0,99,-99.99,,,0.00,Acu-Link.com,2013-01-08 12:28:00,
2013-01-08 06:44:00,23.4,23.2,30.19,ESE,112,0.0,-999.0,99,-99.99,,,0.00,Acu-Link.com,2013-01-08 12:44:00,
2013-01-08 06:59:00,23.7,23.5,30.19,East,90,0.0,-999.0,99,-99.99,,,0.00,Acu-Link.com,2013-01-08 12:59:00,
2013-01-08 07:14:00,23.7,23.5,30.19,ESE,112,0.0,-999.0,99,-99.99,,,0.00,Acu-Link.com,2013-01-08 13:14:00,
2013-01-08 07:29:00,24.6,24.4,30.19,ESE,112,0.0,-999.0,99,-99.99,,,0.00,Acu-Link.com,2013-01-08 13:29:00,
2013-01-08 07:44:00,26.2,26.0,30.20,SE,135,0.0,-999.0,99,-99.99,,,0.00,Acu-Link.com,2013-01-08 13:44:00,
2013-01-08 07:59:00,28.0,27.8,30.21,SE,135,0.0,-999.0,99,-99.99,,,0.00,Acu-Link.com,2013-01-08 13:59:00,
2013-01-08 08:15:00,28.6,28.4,30.21,SE,135,2.2,-999.0,99,-99.99,,,0.00,Acu-Link.com,2013-01-08 14:15:00,
2013-01-08 08:30:00,29.5,29.3,30.21,SE,135,0.0,-999.0,99,-99.99,,,0.00,Acu-Link.com,2013-01-08 14:30:00,
2013-01-08 08:45:00,30.6,30.4,30.22,ESE,112,0.0,-999.0,99,-99.99,,,0.00,Acu-Link.com,2013-01-08 14:45:00,
2013-01-08 09:00:00,32.7,32.5,30.22,SSE,157,1.7,-999.0,99,-99.99,,,0.00,Acu-Link.com,2013-01-08 15:00:00,
2013-01-08 09:15:00,35.4,35.1,30.22,SSE,157,2.7,-999.0,99,-99.99,,,0.00,Acu-Link.com,2013-01-08 15:15:00,
2013-01-08 09:30:00,36.9,36.6,30.22,SSE,157,3.2,-999.0,99,-99.99,,,0.00,Acu-Link.com,2013-01-08 15:30:00,
2013-01-08 09:45:00,39.2,38.7,30.22,South,180,2.7,-999.0,98,-99.99,,,0.00,Acu-Link.com,2013-01-08 15:45:00,
2013-01-08 10:00:00,40.8,38.4,30.22,SSE,157,3.7,-999.0,91,-99.99,,,0.00,Acu-Link.com,2013-01-08 16:00:00,
2013-01-08 10:15:00,41.7,36.6,30.21,SSE,157,2.7,-999.0,82,-99.99,,,0.00,Acu-Link.com,2013-01-08 16:15:00,
2013-01-08 10:30:00,42.8,36.4,30.21,SSE,157,4.7,-999.0,78,-99.99,,,0.00,Acu-Link.com,2013-01-08 16:30:00,
2013-01-08 10:46:00,44.1,35.0,30.20,South,180,6.3,-999.0,70,-99.99,,,0.00,Acu-Link.com,2013-01-08 16:46:00,
2013-01-08 11:01:00,44.6,34.3,30.19,SSW,202,4.2,-999.0,67,-99.99,,,0.00,Acu-Link.com,2013-01-08 17:01:00,
2013-01-08 11:16:00,45.3,34.2,30.18,SSE,157,5.3,-999.0,65,-99.99,,,0.00,Acu-Link.com,2013-01-08 17:16:00,
2013-01-08 11:31:00,46.9,34.6,30.17,SSE,157,4.7,-999.0,62,-99.99,,,0.00,Acu-Link.com,2013-01-08 17:31:00,
2013-01-08 11:46:00,47.7,34.5,30.17,SSW,202,5.8,-999.0,60,-99.99,,,0.00,Acu-Link.com,2013-01-08 17:46:00,
2013-01-08 12:01:00,48.4,34.7,30.17,SSE,157,6.3,-999.0,59,-99.99,,,0.00,Acu-Link.com,2013-01-08 18:01:00,
2013-01-08 12:17:00,47.7,35.3,30.16,SSE,157,2.7,-999.0,62,-99.99,,,0.00,Acu-Link.com,2013-01-08 18:17:00,
2013-01-08 20:12:00,44.4,44.1,30.12,South,180,2.2,-999.0,99,-99.99,,,0.00,Acu-Link.com,2013-01-09 02:12:00,
2013-01-08 20:27:00,43.9,43.6,30.13,SSW,202,1.7,-999.0,99,-99.99,,,0.00,Acu-Link.com,2013-01-09 02:27:00,
2013-01-08 20:42:00,43.7,43.4,30.13,SSE,157,1.7,-999.0,99,-99.99,,,0.00,Acu-Link.com,2013-01-09 02:42:00,
2013-01-08 20:57:00,43.3,43.0,30.13,SSE,157,2.7,-999.0,99,-99.99,,,0.00,Acu-Link.com,2013-01-09 02:57:00,
2013-01-08 21:12:00,43.5,43.2,30.14,South,180,2.2,-999.0,99,-99.99,,,0.00,Acu-Link.com,2013-01-09 03:12:00,
2013-01-08 21:27:00,45.1,44.8,30.13,South,180,4.2,-999.0,99,-99.99,,,0.00,Acu-Link.com,2013-01-09 03:27:00,
2013-01-08 21:42:00,46.0,45.7,30.12,SSE,157,4.2,-999.0,99,-99.99,,,0.00,Acu-Link.com,2013-01-09 03:42:00,
2013-01-08 21:58:00,46.6,45.8,30.13,SSW,202,2.2,-999.0,97,-99.99,,,0.00,Acu-Link.com,2013-01-09 03:58:00,
2013-01-08 22:13:00,46.8,45.4,30.12,South,180,2.2,-999.0,95,-99.99,,,0.00,Acu-Link.com,2013-01-09 04:13:00,
2013-01-08 22:28:00,46.9,45.3,30.13,South,180,3.7,-999.0,94,-99.99,,,0.00,Acu-Link.com,2013-01-09 04:28:00,
2013-01-08 22:43:00,46.9,45.3,30.12,South,180,3.7,-999.0,94,-99.99,,,0.00,Acu-Link.com,2013-01-09 04:43:00,
2013-01-08 22:58:00,46.8,45.7,30.13,SW,225,2.2,-999.0,96,-99.99,,,0.00,Acu-Link.com,2013-01-09 04:58:00,
2013-01-08 23:13:00,46.8,45.7,30.14,South,180,2.2,-999.0,96,-99.99,,,0.00,Acu-Link.com,2013-01-09 05:13:00,
2013-01-08 23:28:00,46.8,46.0,30.15,South,180,2.7,-999.0,97,-99.99,,,0.00,Acu-Link.com,2013-01-09 05:28:00,
2013-01-08 23:43:00,47.1,45.7,30.16,SSW,202,2.2,-999.0,95,-99.99,,,0.00,Acu-Link.com,2013-01-09 05:43:00,
2013-01-08 23:58:00,47.1,45.7,30.17,South,180,1.7,-999.0,95,-99.99,,,0.00,Acu-Link.com,2013-01-09 05:58:00,